Time;durP1;ratioP1;P1;durP2;ratioP2;P2;SDS_P1;SDS_P2;PMS_P1;PMS_P2;Temp;Humidity;BMP_temperature;BMP_pressure;BME280_temperature;BME280_humidity;BME280_pressure;Samples;Min_cycle;Max_cycle;Signal;HPM_P1;HPM_P2
2021/06/28 00:03:53;;;;;;;3.57;0.63;;;21.20;99.90;;;;;;20983916;28;20243;-68
2021/06/28 00:13:58;;;;;;;0.33;0.33;;;21.00;99.90;;;;;;20983897;28;20270;-65
2021/06/28 00:24:01;;;;;;;0.70;0.50;;;21.00;99.90;;;;;;20983448;28;20323;-66
2021/06/28 00:34:06;;;;;;;0.40;0.40;;;21.10;99.90;;;;;;20983526;28;20193;-66
2021/06/28 00:44:10;;;;;;;0.57;0.40;;;21.00;99.90;;;;;;20982882;28;20220;-66
2021/06/28 00:54:15;;;;;;;0.30;0.20;;;21.00;99.90;;;;;;20993743;28;20275;-66
2021/06/28 01:04:18;;;;;;;0.43;0.40;;;21.00;99.90;;;;;;20981171;28;20331;-66
2021/06/28 01:14:25;;;;;;;0.70;0.53;;;21.00;99.90;;;;;;20997534;28;20550;-65
2021/06/28 01:24:31;;;;;;;0.40;0.30;;;21.30;99.90;;;;;;20996478;28;20774;-65
2021/06/28 01:34:34;;;;;;;1.00;0.90;;;21.30;99.90;;;;;;20996047;28;20295;-66
2021/06/28 01:44:39;;;;;;;0.20;0.20;;;21.20;99.90;;;;;;20995599;28;20302;-66
2021/06/28 01:54:43;;;;;;;0.40;0.30;;;21.20;99.90;;;;;;20994892;28;20177;-66
2021/06/28 02:04:48;;;;;;;1.70;0.57;;;21.30;99.90;;;;;;20958902;22;20243;-72
2021/06/28 02:14:52;;;;;;;0.20;0.20;;;21.30;99.90;;;;;;20910307;28;20674;-72
2021/06/28 02:24:57;;;;;;;0.60;0.30;;;21.40;99.90;;;;;;20958175;28;20231;-71
2021/06/28 02:35:00;;;;;;;0.30;0.13;;;21.30;99.90;;;;;;20990807;28;20288;-72
2021/06/28 02:45:08;;;;;;;0.30;0.27;;;21.20;99.90;;;;;;20990913;28;20712;-72
2021/06/28 02:55:13;;;;;;;0.20;0.10;;;20.90;99.90;;;;;;20989675;28;20197;-71
2021/06/28 03:05:18;;;;;;;0.27;0.27;;;20.80;99.90;;;;;;20949037;22;20272;-65
2021/06/28 03:15:22;;;;;;;0.20;0.10;;;20.70;99.90;;;;;;20903985;28;20228;-64
2021/06/28 03:25:27;;;;;;;0.20;0.10;;;20.50;99.90;;;;;;20956802;28;20231;-65
2021/06/28 03:35:31;;;;;;;0.50;0.50;;;20.40;99.90;;;;;;20966980;28;20717;-65
2021/06/28 03:45:37;;;;;;;0.20;0.20;;;20.30;99.90;;;;;;20900552;28;20278;-65
2021/06/28 03:55:42;;;;;;;0.30;0.20;;;20.20;99.90;;;;;;20901715;28;20685;-65
2021/06/28 04:05:47;;;;;;;1.43;1.10;;;20.20;99.90;;;;;;20901672;28;20225;-64
2021/06/28 04:15:50;;;;;;;0.80;0.50;;;20.10;99.90;;;;;;20900230;28;20197;-65
2021/06/28 04:25:55;;;;;;;0.80;0.57;;;20.10;99.90;;;;;;20955705;28;20264;-65
2021/06/28 04:36:00;;;;;;;0.43;0.43;;;20.30;99.90;;;;;;20982433;28;20189;-65
2021/06/28 04:46:07;;;;;;;2.30;0.57;;;20.30;99.90;;;;;;20982434;28;20312;-66
2021/06/28 04:56:10;;;;;;;0.33;0.33;;;20.40;99.90;;;;;;20963422;28;20659;-66
2021/06/28 05:06:15;;;;;;;0.50;0.50;;;20.60;99.90;;;;;;20980769;28;20229;-66
2021/06/28 05:16:19;;;;;;;1.70;0.83;;;20.70;99.90;;;;;;20980557;28;20204;-66
2021/06/28 05:26:24;;;;;;;0.40;0.30;;;20.90;99.90;;;;;;20919338;28;20231;-67
2021/06/28 05:36:27;;;;;;;9.17;0.87;;;21.60;99.90;;;;;;20883439;28;20557;-67
2021/06/28 05:46:33;;;;;;;0.43;0.33;;;22.10;99.90;;;;;;20894136;28;20627;-66
2021/06/28 05:56:36;;;;;;;0.83;0.53;;;23.00;99.90;;;;;;20910621;28;20718;-66
2021/06/28 06:06:42;;;;;;;0.45;0.45;;;23.10;99.90;;;;;;20910397;28;20420;-67
2021/06/28 06:16:45;;;;;;;5.07;0.35;;;23.30;99.90;;;;;;20909073;28;20284;-66
2021/06/28 06:26:50;;;;;;;0.85;0.65;;;23.50;99.90;;;;;;20972369;28;20681;-66
2021/06/28 06:36:54;;;;;;;0.52;0.28;;;23.70;99.90;;;;;;20906133;28;20597;-66
2021/06/28 06:46:59;;;;;;;1.98;1.00;;;24.20;99.90;;;;;;20860922;28;20312;-65
2021/06/28 06:57:03;;;;;;;0.65;0.60;;;24.20;99.90;;;;;;20860201;28;20285;-65
2021/06/28 07:07:09;;;;;;;1.25;1.02;;;24.20;99.90;;;;;;20870460;28;20598;-66
2021/06/28 07:17:12;;;;;;;1.08;0.80;;;24.50;99.90;;;;;;20901446;28;20190;-65
2021/06/28 07:27:18;;;;;;;0.73;0.73;;;24.70;99.90;;;;;;20968953;28;20220;-65
2021/06/28 07:37:21;;;;;;;0.35;0.32;;;24.60;99.90;;;;;;20897910;28;20543;-65
2021/06/28 07:47:26;;;;;;;1.38;0.75;;;24.50;99.90;;;;;;20884640;28;20217;-65
2021/06/28 07:57:30;;;;;;;0.70;0.65;;;24.80;99.90;;;;;;20880749;28;20952;-65
2021/06/28 08:07:35;;;;;;;1.00;0.85;;;24.70;99.90;;;;;;20822581;28;20268;-64
2021/06/28 08:17:39;;;;;;;0.20;0.20;;;24.70;99.90;;;;;;20855631;28;20212;-66
2021/06/28 08:27:45;;;;;;;1.00;0.73;;;24.90;99.90;;;;;;20843475;28;20240;-66
2021/06/28 08:37:49;;;;;;;1.77;1.02;;;25.10;99.90;;;;;;20896693;28;20553;-65
2021/06/28 08:47:55;;;;;;;0.47;0.47;;;25.30;99.90;;;;;;20892766;28;20252;-64
2021/06/28 08:57:59;;;;;;;0.75;0.55;;;25.40;99.90;;;;;;20815820;28;20651;-64
2021/06/28 09:08:14;;;;;;;0.63;0.63;;;25.30;99.90;;;;;;20868856;28;20265;-63
2021/06/28 09:18:22;;;;;;;0.93;0.32;;;25.50;99.90;;;;;;20893938;28;20338;-65
2021/06/28 09:28:39;;;;;;;3.40;0.80;;;25.40;99.90;;;;;;20928532;28;20674;-65
2021/06/28 09:38:43;;;;;;;2.08;1.60;;;25.80;99.90;;;;;;20906214;28;20225;-62
2021/06/28 09:48:53;;;;;;;0.93;0.60;;;26.80;99.90;;;;;;20892113;28;20213;-63
2021/06/28 09:58:57;;;;;;;1.48;1.27;;;26.10;99.90;;;;;;20908942;28;20206;-63
2021/06/28 10:09:07;;;;;;;2.80;2.20;;;25.70;99.90;;;;;;20908772;28;20255;-64
2021/06/28 10:19:12;;;;;;;0.63;0.63;;;25.20;99.90;;;;;;20891704;28;20200;-62
2021/06/28 10:29:17;;;;;;;2.80;0.73;;;25.30;99.90;;;;;;20990125;28;20258;-62
2021/06/28 10:39:26;;;;;;;1.15;1.05;;;26.20;99.90;;;;;;20970761;28;20709;-63
2021/06/28 10:49:50;;;;;;;0.68;0.68;;;26.30;99.90;;;;;;20904703;28;20522;-63
2021/06/28 10:59:54;;;;;;;1.05;0.93;;;26.20;99.90;;;;;;20886016;28;20226;-63
2021/06/28 11:09:59;;;;;;;0.30;0.25;;;26.50;99.90;;;;;;20871348;28;20218;-65
2021/06/28 11:20:05;;;;;;;1.45;0.55;;;26.60;99.90;;;;;;20839175;28;20630;-66
2021/06/28 11:30:22;;;;;;;0.77;0.77;;;27.40;99.90;;;;;;20857269;28;20300;-65
2021/06/28 11:40:38;;;;;;;0.30;0.30;;;27.60;99.90;;;;;;20890684;28;20276;-66
2021/06/28 11:50:44;;;;;;;1.08;0.98;;;28.30;99.90;;;;;;20883886;28;20229;-65
2021/06/28 12:00:48;;;;;;;8.30;1.90;;;29.20;99.90;;;;;;20900320;28;20226;-65
2021/06/28 12:10:59;;;;;;;0.40;0.35;;;29.90;99.90;;;;;;20900374;28;20229;-65
2021/06/28 12:21:03;;;;;;;0.63;0.45;;;30.50;99.90;;;;;;20915860;28;20541;-64
2021/06/28 12:31:17;;;;;;;0.50;0.50;;;30.40;99.90;;;;;;20981310;28;20654;-65
2021/06/28 12:41:23;;;;;;;0.98;0.75;;;30.90;99.90;;;;;;20946535;28;20277;-65
2021/06/28 12:51:28;;;;;;;0.68;0.57;;;30.80;99.90;;;;;;20896948;28;20245;-66
2021/06/28 13:01:33;;;;;;;0.52;0.52;;;31.70;99.90;;;;;;20887384;28;20294;-66
2021/06/28 13:11:47;;;;;;;1.17;1.05;;;30.80;99.90;;;;;;20895352;28;20335;-66
2021/06/28 13:21:57;;;;;;;0.93;0.60;;;31.20;99.90;;;;;;20877749;28;20283;-66
2021/06/28 13:32:04;;;;;;;4.70;0.50;;;32.00;99.90;;;;;;20979180;28;20315;-66
2021/06/28 13:42:22;;;;;;;1.52;1.13;;;32.30;99.90;;;;;;20936553;28;20193;-65
2021/06/28 13:52:27;;;;;;;0.60;0.57;;;32.40;99.90;;;;;;20853788;28;20316;-62
2021/06/28 14:02:31;;;;;;;4.63;0.57;;;32.40;99.90;;;;;;20862913;28;20225;-63
2021/06/28 14:12:36;;;;;;;0.55;0.55;;;32.20;99.90;;;;;;20901640;28;20308;-65
2021/06/28 14:22:41;;;;;;;2.55;1.67;;;32.40;99.90;;;;;;20887739;28;20659;-66
2021/06/28 14:32:47;;;;;;;1.08;0.73;;;33.00;99.90;;;;;;20888511;28;20642;-63
2021/06/28 14:42:52;;;;;;;0.90;0.60;;;33.70;99.90;;;;;;20888041;28;20662;-63
2021/06/28 14:52:57;;;;;;;1.00;0.90;;;34.40;99.90;;;;;;20905590;28;20320;-66
2021/06/28 15:03:00;;;;;;;4.05;0.75;;;34.50;99.90;;;;;;20904178;28;20672;-66
2021/06/28 15:13:05;;;;;;;2.00;0.52;;;34.70;99.90;;;;;;20901524;28;20231;-64
2021/06/28 15:23:09;;;;;;;7.30;1.20;;;34.40;99.90;;;;;;20873642;28;20217;-65
2021/06/28 15:33:14;;;;;;;7.30;1.00;;;34.20;99.90;;;;;;20877586;28;20216;-65
2021/06/28 15:43:21;;;;;;;0.93;0.73;;;34.20;99.90;;;;;;20884292;28;20251;-62
2021/06/28 15:53:26;;;;;;;0.95;0.90;;;34.00;99.90;;;;;;20901469;28;20312;-66
2021/06/28 16:03:31;;;;;;;2.05;1.23;;;33.40;99.90;;;;;;20899804;28;20217;-66
2021/06/28 16:13:36;;;;;;;1.02;0.80;;;33.00;99.90;;;;;;20869634;28;20453;-65
2021/06/28 16:23:40;;;;;;;1.38;1.10;;;33.50;99.90;;;;;;20893651;28;20217;-65
2021/06/28 16:33:45;;;;;;;1.20;1.08;;;33.50;99.90;;;;;;20888940;28;20237;-65
2021/06/28 16:43:50;;;;;;;1.50;0.90;;;33.70;99.90;;;;;;20869288;28;20243;-65
2021/06/28 16:53:55;;;;;;;3.17;1.35;;;33.70;99.90;;;;;;20895841;28;20237;-66
2021/06/28 17:03:59;;;;;;;2.47;2.20;;;33.40;99.90;;;;;;20894993;28;20217;-63
2021/06/28 17:14:05;;;;;;;2.15;1.55;;;33.30;99.90;;;;;;20877795;28;20247;-65
2021/06/28 17:24:09;;;;;;;12.55;9.15;;;33.10;99.90;;;;;;20937585;28;20225;-65
2021/06/28 17:34:14;;;;;;;1.00;0.77;;;32.60;99.90;;;;;;20872967;28;20332;-65
2021/06/28 17:44:18;;;;;;;1.60;0.98;;;31.50;99.90;;;;;;20836539;28;20284;-65
2021/06/28 17:54:23;;;;;;;5.18;1.48;;;31.40;99.90;;;;;;20856685;28;20227;-66
2021/06/28 18:04:26;;;;;;;0.80;0.70;;;31.30;99.90;;;;;;20884458;28;20232;-66
2021/06/28 18:14:32;;;;;;;1.05;0.85;;;31.20;99.90;;;;;;20815544;28;20222;-64
2021/06/28 18:24:36;;;;;;;1.48;0.80;;;28.50;99.90;;;;;;20916869;28;20963;-66
2021/06/28 18:34:41;;;;;;;1.40;0.82;;;27.60;99.90;;;;;;20927438;28;20279;-67
2021/06/28 18:44:44;;;;;;;3.15;1.38;;;26.90;99.90;;;;;;20823022;28;20190;-66
2021/06/28 18:54:50;;;;;;;0.88;0.52;;;26.60;99.90;;;;;;20836763;28;20355;-66
2021/06/28 19:04:54;;;;;;;1.25;1.02;;;26.50;99.90;;;;;;20825346;28;20230;-66
2021/06/28 19:15:18;;;;;;;1.48;0.75;;;25.80;99.90;;;;;;20820572;28;20325;-66
2021/06/28 19:25:22;;;;;;;0.63;0.60;;;25.20;99.90;;;;;;20863077;28;20681;-67
2021/06/28 19:35:29;;;;;;;1.23;1.13;;;24.80;99.90;;;;;;20855977;28;20236;-66
2021/06/28 19:45:33;;;;;;;1.10;0.50;;;24.60;99.90;;;;;;20859044;28;20198;-66
2021/06/28 19:55:38;;;;;;;0.57;0.38;;;24.00;99.90;;;;;;20798096;28;20520;-65
2021/06/28 20:05:41;;;;;;;1.27;1.00;;;23.90;99.90;;;;;;20816977;28;20225;-65
2021/06/28 20:15:46;;;;;;;0.60;0.60;;;23.70;99.90;;;;;;20823262;28;20226;-66
2021/06/28 20:25:50;;;;;;;3.90;1.27;;;23.80;99.90;;;;;;20882472;28;20564;-66
2021/06/28 20:35:55;;;;;;;5.20;0.70;;;23.90;99.90;;;;;;20869900;28;20243;-65
2021/06/28 20:45:59;;;;;;;0.50;0.50;;;23.80;99.90;;;;;;20861808;28;20239;-65
2021/06/28 20:56:11;;;;;;;0.95;0.82;;;24.00;99.90;;;;;;20894696;28;20656;-65
2021/06/28 21:06:15;;;;;;;0.40;0.40;;;24.00;99.90;;;;;;20897329;28;20324;-65
2021/06/28 21:16:20;;;;;;;0.50;0.30;;;23.90;99.90;;;;;;20910955;28;20225;-65
2021/06/28 21:26:24;;;;;;;0.43;0.40;;;23.80;99.90;;;;;;20969623;28;20292;-67
2021/06/28 21:36:31;;;;;;;3.23;1.50;;;23.80;99.90;;;;;;20951192;28;20229;-66
2021/06/28 21:46:34;;;;;;;0.97;0.60;;;23.80;99.90;;;;;;20913327;28;20686;-65
2021/06/28 21:56:39;;;;;;;0.40;0.40;;;23.90;99.90;;;;;;20907485;28;20570;-66
2021/06/28 22:06:43;;;;;;;1.67;1.33;;;23.90;99.90;;;;;;20832010;28;20338;-66
2021/06/28 22:16:48;;;;;;;0.80;0.53;;;23.50;99.90;;;;;;20826502;28;20221;-66
2021/06/28 22:26:52;;;;;;;0.50;0.40;;;23.70;99.90;;;;;;20954519;28;20638;-65
2021/06/28 22:36:56;;;;;;;0.50;0.23;;;23.70;99.90;;;;;;20917064;28;20320;-66
2021/06/28 22:47:01;;;;;;;0.60;0.60;;;23.50;99.90;;;;;;20890203;28;20197;-67
2021/06/28 22:57:07;;;;;;;0.60;0.40;;;23.60;99.90;;;;;;20922534;28;20201;-66
2021/06/28 23:07:10;;;;;;;1.30;1.02;;;23.80;99.90;;;;;;20906764;28;20217;-67
2021/06/28 23:17:15;;;;;;;1.98;0.82;;;23.90;99.90;;;;;;20872092;28;20266;-67
2021/06/28 23:27:19;;;;;;;0.55;0.50;;;24.00;99.90;;;;;;20972494;28;20201;-67
2021/06/28 23:37:24;;;;;;;0.53;0.37;;;24.00;99.90;;;;;;20932413;28;20276;-66
2021/06/28 23:47:27;;;;;;;0.20;0.13;;;23.70;99.90;;;;;;20903654;28;20197;-66
2021/06/28 23:57:32;;;;;;;0.20;0.13;;;23.70;99.90;;;;;;20902771;28;20254;-66
